Time;durP1;ratioP1;P1;durP2;ratioP2;P2;SDS_P1;SDS_P2;PMS_P1;PMS_P2;Temp;Humidity;BMP_temperature;BMP_pressure;BME280_temperature;BME280_humidity;BME280_pressure;Samples;Min_cycle;Max_cycle;Signal;HPM_P1;HPM_P2
2021/04/27 00:02:03;;;;;;;5.88;4.90;;;;;;;6.12;65.60;95671.09;5027061;28;20104;-55
2021/04/27 00:04:30;;;;;;;9.05;5.28;;;;;;;6.01;66.26;95659.94;5022169;28;20476;-54
2021/04/27 00:06:58;;;;;;;8.90;5.10;;;;;;;5.97;66.98;95658.56;5028819;28;20068;-57
2021/04/27 00:09:25;;;;;;;7.60;5.03;;;;;;;5.93;67.44;95648.38;5021209;28;20218;-57
2021/04/27 00:11:53;;;;;;;6.80;5.35;;;;;;;5.88;68.62;95655.78;5025371;28;20065;-52
2021/04/27 00:14:21;;;;;;;6.70;5.60;;;;;;;5.86;69.62;95647.22;5024377;28;20069;-52
2021/04/27 00:16:48;;;;;;;11.30;5.15;;;;;;;5.89;69.44;95646.97;5027490;28;20133;-52
2021/04/27 00:19:15;;;;;;;7.28;5.40;;;;;;;5.79;70.57;95646.13;5017159;28;20467;-56
2021/04/27 00:21:43;;;;;;;6.68;5.35;;;;;;;5.74;71.46;95648.31;5025644;28;20080;-55
2021/04/27 00:24:11;;;;;;;7.78;6.03;;;;;;;5.74;72.78;95647.47;5026636;28;20076;-53
2021/04/27 00:26:38;;;;;;;8.05;5.13;;;;;;;5.65;73.59;95638.66;5021106;28;20065;-57
2021/04/27 00:29:07;;;;;;;6.70;5.68;;;;;;;5.65;75.06;95639.50;5023473;28;20083;-55
2021/04/27 00:31:34;;;;;;;8.93;5.45;;;;;;;5.59;75.40;95636.59;5019376;28;20061;-54
2021/04/27 00:34:03;;;;;;;11.32;6.03;;;;;;;5.62;76.23;95629.31;5017834;28;20500;-55
2021/04/27 00:36:30;;;;;;;8.80;5.90;;;;;;;5.65;77.25;95623.81;5026460;28;20084;-52
2021/04/27 00:38:58;;;;;;;9.75;6.60;;;;;;;5.64;77.69;95627.38;5026512;28;20073;-54
2021/04/27 00:41:26;;;;;;;10.77;6.50;;;;;;;5.65;78.92;95622.97;5025346;28;20061;-57
2021/04/27 00:43:54;;;;;;;9.40;6.28;;;;;;;5.59;79.19;95620.91;5027138;28;20042;-56
2021/04/27 00:46:22;;;;;;;8.60;6.10;;;;;;;5.58;79.92;95627.09;5013574;28;20076;-54
2021/04/27 00:48:50;;;;;;;7.85;5.68;;;;;;;5.53;80.39;95621.44;5030573;28;20073;-57
2021/04/27 00:51:18;;;;;;;8.68;6.20;;;;;;;5.59;80.46;95629.56;5021401;28;20072;-54
2021/04/27 00:53:46;;;;;;;10.65;6.45;;;;;;;5.59;81.55;95621.72;5028838;28;20069;-57
2021/04/27 00:56:13;;;;;;;11.23;6.82;;;;;;;5.55;81.35;95620.34;5021098;28;20076;-52
2021/04/27 00:58:41;;;;;;;9.50;6.60;;;;;;;5.50;82.24;95616.47;5026092;28;20072;-55
2021/04/27 01:01:11;;;;;;;8.88;6.45;;;;;;;5.45;83.12;95617.69;5011836;28;20092;-58
2021/04/27 01:03:39;;;;;;;11.43;6.32;;;;;;;5.39;83.42;95620.84;5029324;28;20081;-57
2021/04/27 01:06:08;;;;;;;11.60;6.53;;;;;;;5.44;83.55;95616.06;5021877;28;20103;-58
2021/04/27 01:08:43;;;;;;;9.57;6.95;;;;;;;5.42;83.12;95617.13;5018006;28;20069;-54
2021/04/27 01:11:16;;;;;;;13.00;6.85;;;;;;;5.25;85.70;95621.22;5017138;28;20513;-53
2021/04/27 01:13:46;;;;;;;9.70;6.70;;;;;;;5.26;86.31;95625.47;5024296;28;20084;-55
2021/04/27 01:16:14;;;;;;;8.20;6.82;;;;;;;5.23;87.09;95623.97;5022858;28;20089;-55
2021/04/27 01:18:44;;;;;;;9.23;7.07;;;;;;;5.13;88.04;95627.50;5026607;28;20475;-55
2021/04/27 01:21:13;;;;;;;10.93;7.40;;;;;;;5.08;88.39;95627.06;5025671;28;20571;-54
2021/04/27 01:23:51;;;;;;;10.02;6.80;;;;;;;5.08;88.93;95619.22;5016827;28;20057;-52
2021/04/27 01:26:32;;;;;;;9.48;6.55;;;;;;;5.01;89.52;95621.53;5016866;28;20068;-56
2021/04/27 01:29:00;;;;;;;10.45;6.75;;;;;;;5.02;89.80;95617.94;5021123;28;20065;-56
2021/04/27 01:31:28;;;;;;;10.57;7.10;;;;;;;5.05;90.57;95616.88;5017440;28;20073;-57
2021/04/27 01:33:56;;;;;;;9.20;6.65;;;;;;;5.00;89.18;95618.09;5026531;28;20681;-54
2021/04/27 01:36:23;;;;;;;8.57;6.45;;;;;;;4.87;90.16;95617.47;5024643;28;20072;-54
2021/04/27 01:38:51;;;;;;;10.00;6.45;;;;;;;4.92;89.29;95617.09;5024029;28;20452;-51
2021/04/27 01:41:20;;;;;;;7.57;5.78;;;;;;;4.90;88.58;95617.22;5025972;28;20482;-53
2021/04/27 01:43:48;;;;;;;7.75;5.97;;;;;;;4.71;91.22;95625.81;5022426;28;20451;-51
2021/04/27 01:46:16;;;;;;;8.35;5.70;;;;;;;4.66;91.43;95624.53;5021506;28;20077;-55
2021/04/27 01:48:45;;;;;;;7.32;5.75;;;;;;;4.59;92.67;95615.56;5025313;28;20077;-56
2021/04/27 01:51:13;;;;;;;7.13;5.60;;;;;;;4.56;92.75;95616.63;5024816;28;20061;-52
2021/04/27 01:53:41;;;;;;;7.82;5.72;;;;;;;4.57;93.47;95617.44;5009889;28;20065;-53
2021/04/27 01:56:09;;;;;;;9.18;5.90;;;;;;;4.60;92.67;95607.59;5026133;28;20072;-53
2021/04/27 01:58:36;;;;;;;9.63;5.47;;;;;;;4.50;93.64;95610.13;5022706;28;20077;-55
2021/04/27 02:01:06;;;;;;;6.97;5.93;;;;;;;4.56;92.89;95602.75;5020090;28;20088;-53
2021/04/27 02:03:39;;;;;;;10.23;5.35;;;;;;;4.54;92.41;95605.47;5024382;28;20085;-53
2021/04/27 02:06:07;;;;;;;7.40;5.57;;;;;;;4.64;91.71;95602.94;5023606;28;20087;-54
2021/04/27 02:08:35;;;;;;;7.65;5.65;;;;;;;4.60;91.66;95598.94;5021941;28;20066;-51
2021/04/27 02:11:03;;;;;;;7.55;5.88;;;;;;;4.57;91.49;95602.63;5022466;28;20061;-53
2021/04/27 02:13:30;;;;;;;6.20;5.35;;;;;;;4.56;90.14;95602.75;5018784;28;20057;-54
2021/04/27 02:15:58;;;;;;;8.30;5.45;;;;;;;4.61;90.80;95598.81;5023677;28;20065;-56
2021/04/27 02:18:30;;;;;;;7.68;5.45;;;;;;;4.58;90.82;95601.69;5021231;28;21469;-51
2021/04/27 02:20:59;;;;;;;8.50;5.38;;;;;;;4.57;90.68;95596.56;5019038;28;20058;-55
2021/04/27 02:23:28;;;;;;;6.95;5.70;;;;;;;4.65;90.39;95599.38;5023835;28;20072;-55
2021/04/27 02:25:56;;;;;;;8.45;5.50;;;;;;;4.54;91.08;95595.03;5023760;28;20080;-55
2021/04/27 02:28:25;;;;;;;6.70;5.47;;;;;;;4.56;89.89;95592.31;5022827;28;20512;-54
2021/04/27 02:30:53;;;;;;;8.98;6.07;;;;;;;4.49;89.45;95595.44;5024891;28;20088;-54
2021/04/27 02:33:21;;;;;;;7.30;6.05;;;;;;;4.50;88.20;95594.47;5020582;28;20071;-53
2021/04/27 02:35:50;;;;;;;8.88;5.63;;;;;;;4.53;87.94;95594.22;5015735;28;20457;-56
2021/04/27 02:38:19;;;;;;;7.85;5.80;;;;;;;4.59;87.80;95589.44;5004973;28;20076;-54
2021/04/27 02:40:51;;;;;;;8.63;5.93;;;;;;;4.57;87.03;95594.78;5013926;28;20061;-51
2021/04/27 02:43:19;;;;;;;10.27;6.45;;;;;;;4.57;86.79;95589.56;5006713;28;20143;-56
2021/04/27 02:45:47;;;;;;;9.45;5.70;;;;;;;4.55;87.80;95580.22;5003576;28;20080;-54
2021/04/27 02:48:19;;;;;;;8.82;6.50;;;;;;;4.49;88.83;95579.78;5019147;28;20057;-53
2021/04/27 02:50:49;;;;;;;7.70;5.72;;;;;;;4.35;89.80;95574.88;5022661;28;20069;-56
2021/04/27 02:53:17;;;;;;;7.55;5.97;;;;;;;4.26;90.59;95573.84;5022945;28;20132;-56
2021/04/27 02:55:45;;;;;;;10.30;5.70;;;;;;;4.23;90.85;95568.06;5021200;28;20080;-55
2021/04/27 02:58:13;;;;;;;7.75;5.82;;;;;;;4.22;90.95;95575.06;5007745;28;20088;-53
2021/04/27 03:00:41;;;;;;;8.23;6.30;;;;;;;4.17;91.88;95574.63;5021869;28;20177;-53
2021/04/27 03:03:08;;;;;;;7.63;5.75;;;;;;;4.14;91.87;95568.84;5009005;28;20073;-52
2021/04/27 03:05:36;;;;;;;7.47;6.40;;;;;;;4.06;92.65;95566.88;5030277;28;20064;-55
2021/04/27 03:08:12;;;;;;;8.02;5.93;;;;;;;4.01;92.08;95562.03;5026154;28;20042;-54
2021/04/27 03:10:39;;;;;;;7.97;5.88;;;;;;;4.18;91.49;95565.03;5029653;28;20065;-56
2021/04/27 03:13:07;;;;;;;9.38;6.05;;;;;;;4.11;92.45;95571.72;5025234;28;20092;-56
2021/04/27 03:15:35;;;;;;;9.75;6.35;;;;;;;4.02;92.57;95571.50;5020203;28;20084;-53
2021/04/27 03:18:03;;;;;;;6.75;5.90;;;;;;;4.10;91.43;95570.06;5023815;28;20062;-52
2021/04/27 03:20:31;;;;;;;8.68;5.97;;;;;;;4.05;92.31;95563.41;5024150;28;20058;-54
2021/04/27 03:22:58;;;;;;;8.18;5.65;;;;;;;3.99;91.88;95569.16;5023691;28;20057;-53
2021/04/27 03:25:27;;;;;;;8.23;6.15;;;;;;;3.95;92.98;95561.69;5026929;28;20072;-52
2021/04/27 03:27:55;;;;;;;7.03;6.22;;;;;;;3.93;93.41;95568.84;5025423;28;20455;-56
2021/04/27 03:30:23;;;;;;;7.90;6.60;;;;;;;3.91;93.29;95566.34;5024742;28;20084;-51
2021/04/27 03:32:50;;;;;;;9.57;6.20;;;;;;;3.89;93.35;95560.44;5017168;28;20070;-49
2021/04/27 03:35:18;;;;;;;8.82;5.90;;;;;;;3.90;93.25;95562.09;5025555;28;20475;-54
2021/04/27 03:37:45;;;;;;;9.20;5.72;;;;;;;3.85;93.39;95563.41;5011487;28;20061;-54
2021/04/27 03:40:13;;;;;;;6.80;5.70;;;;;;;3.90;93.40;95562.09;5025249;28;20092;-55
2021/04/27 03:42:42;;;;;;;7.25;5.53;;;;;;;3.88;93.24;95563.97;5024914;28;20081;-56
2021/04/27 03:45:12;;;;;;;8.43;6.22;;;;;;;3.82;92.96;95564.50;5024975;28;20072;-54
2021/04/27 03:47:40;;;;;;;7.22;6.10;;;;;;;3.77;95.04;95564.03;5023426;28;20104;-52
2021/04/27 03:50:11;;;;;;;9.32;6.30;;;;;;;3.76;94.58;95563.22;5022982;28;20073;-51
2021/04/27 03:52:39;;;;;;;7.55;5.63;;;;;;;3.69;94.52;95567.28;5022040;28;20065;-52
2021/04/27 03:55:08;;;;;;;8.52;5.78;;;;;;;3.71;95.49;95560.13;5028352;28;20092;-54
2021/04/27 03:57:36;;;;;;;11.00;5.82;;;;;;;3.62;96.38;95554.88;5023202;28;20081;-53
2021/04/27 04:00:06;;;;;;;7.20;5.63;;;;;;;3.58;97.33;95562.09;5025003;28;20694;-51
2021/04/27 04:02:34;;;;;;;6.40;5.72;;;;;;;3.63;96.35;95559.94;5021749;28;20275;-57
2021/04/27 04:05:02;;;;;;;8.45;6.13;;;;;;;3.56;96.51;95557.00;5018806;28;20575;-56
2021/04/27 04:07:30;;;;;;;7.07;5.80;;;;;;;3.59;96.86;95558.53;5028312;28;20527;-54
2021/04/27 04:09:57;;;;;;;10.52;6.22;;;;;;;3.57;97.27;95552.63;5025895;28;20079;-54
2021/04/27 04:12:24;;;;;;;11.43;6.90;;;;;;;3.65;95.65;95559.81;5024289;28;20095;-51
2021/04/27 04:14:53;;;;;;;10.00;6.18;;;;;;;3.61;95.79;95556.63;5021158;28;20077;-56
2021/04/27 04:17:21;;;;;;;9.10;6.57;;;;;;;3.65;95.90;95554.59;5025258;28;20072;-51
2021/04/27 04:19:49;;;;;;;9.02;6.63;;;;;;;3.64;95.82;95555.56;5016500;28;20073;-55
2021/04/27 04:22:16;;;;;;;7.93;6.07;;;;;;;3.74;95.08;95559.06;5020173;28;20082;-51
2021/04/27 04:24:43;;;;;;;8.43;7.18;;;;;;;3.70;95.10;95562.88;5023162;28;20087;-52
2021/04/27 04:27:11;;;;;;;7.90;6.10;;;;;;;3.77;94.98;95558.81;5036086;22;20065;-62
2021/04/27 04:29:38;;;;;;;8.80;6.63;;;;;;;3.86;94.31;95562.47;4999528;28;20073;-63
2021/04/27 04:32:09;;;;;;;11.77;7.18;;;;;;;3.80;94.04;95555.97;4994119;28;20077;-62
2021/04/27 04:34:38;;;;;;;9.90;6.28;;;;;;;3.98;92.92;95556.22;4994230;28;20065;-64
2021/04/27 04:37:05;;;;;;;9.52;6.07;;;;;;;4.02;91.69;95552.41;4994864;28;20108;-63
2021/04/27 04:39:33;;;;;;;8.10;6.13;;;;;;;3.91;92.04;95550.69;4986607;28;20078;-64
2021/04/27 04:42:01;;;;;;;9.02;6.43;;;;;;;4.00;90.07;95555.16;4986904;28;20112;-63
2021/04/27 04:44:29;;;;;;;9.23;6.45;;;;;;;4.28;86.67;95550.25;5007825;28;20062;-64
2021/04/27 04:46:57;;;;;;;6.57;5.85;;;;;;;4.34;86.19;95552.34;5003314;28;20520;-65
2021/04/27 04:49:25;;;;;;;10.55;7.30;;;;;;;4.31;86.47;95554.41;5006928;28;20070;-64
2021/04/27 04:51:54;;;;;;;9.88;7.50;;;;;;;5.41;77.65;95548.34;5007683;28;20081;-64
2021/04/27 04:54:22;;;;;;;11.43;6.57;;;;;;;5.91;70.46;95544.78;5005454;28;20061;-65
2021/04/27 04:56:49;;;;;;;8.23;6.35;;;;;;;6.70;64.08;95544.53;5003576;28;20542;-64
2021/04/27 04:59:17;;;;;;;7.68;5.90;;;;;;;7.47;58.24;95537.25;5007044;28;20100;-66
2021/04/27 05:01:45;;;;;;;8.98;6.20;;;;;;;8.14;54.00;95541.13;5001370;28;20067;-65
2021/04/27 05:04:12;;;;;;;7.32;5.78;;;;;;;8.83;49.89;95534.22;4988968;28;20072;-66
2021/04/27 05:06:42;;;;;;;7.65;5.93;;;;;;;8.17;50.94;95532.13;5007568;28;20045;-65
2021/04/27 05:09:12;;;;;;;7.80;5.68;;;;;;;8.94;49.34;95533.13;5005107;28;20068;-65
2021/04/27 05:11:40;;;;;;;12.07;5.63;;;;;;;9.02;48.73;95530.56;5003494;28;20073;-65
2021/04/27 05:14:08;;;;;;;7.40;5.38;;;;;;;9.55;47.48;95534.66;5006053;28;20080;-66
2021/04/27 05:16:35;;;;;;;6.40;5.30;;;;;;;9.62;46.80;95538.28;5003021;28;20073;-66
2021/04/27 05:19:03;;;;;;;9.23;5.32;;;;;;;9.36;47.73;95534.94;5006765;28;20081;-65
2021/04/27 05:21:31;;;;;;;6.88;5.80;;;;;;;9.42;47.67;95529.84;5004165;28;20531;-65
2021/04/27 05:23:59;;;;;;;8.52;5.50;;;;;;;9.17;48.12;95533.41;5004302;28;20069;-66
2021/04/27 05:26:27;;;;;;;7.85;5.22;;;;;;;9.83;46.67;95531.75;5000362;28;20069;-64
2021/04/27 05:28:55;;;;;;;6.97;5.50;;;;;;;10.05;46.02;95538.19;5005119;28;20069;-65
2021/04/27 05:31:23;;;;;;;8.05;5.57;;;;;;;9.10;47.63;95548.16;5004067;28;20558;-63
2021/04/27 05:33:51;;;;;;;7.20;5.40;;;;;;;8.24;50.38;95541.88;5008003;28;20077;-67
2021/04/27 05:36:19;;;;;;;8.55;6.32;;;;;;;7.50;56.40;95552.69;5004975;28;20069;-61
2021/04/27 05:38:46;;;;;;;7.63;5.75;;;;;;;7.39;57.73;95553.72;5002710;28;20070;-66
2021/04/27 05:41:14;;;;;;;9.50;6.40;;;;;;;7.25;58.59;95548.97;5007276;28;20076;-65
2021/04/27 05:43:43;;;;;;;9.57;7.15;;;;;;;7.03;60.85;95558.88;5001206;28;20476;-66
2021/04/27 05:46:10;;;;;;;9.25;6.10;;;;;;;7.01;61.93;95554.75;5005463;28;20567;-65
2021/04/27 05:48:37;;;;;;;10.45;6.32;;;;;;;6.93;61.16;95554.66;5007362;28;20084;-64
2021/04/27 05:51:05;;;;;;;6.97;5.78;;;;;;;6.90;62.58;95558.38;5002488;28;20065;-65
2021/04/27 05:53:32;;;;;;;8.45;6.60;;;;;;;7.03;61.68;95552.81;5002859;28;20050;-66
2021/04/27 05:56:00;;;;;;;11.43;7.35;;;;;;;7.13;62.39;95549.19;5006877;28;20070;-65
2021/04/27 05:58:28;;;;;;;8.82;6.32;;;;;;;6.88;64.17;95549.81;5003451;28;20076;-63
2021/04/27 06:00:57;;;;;;;8.38;6.70;;;;;;;6.95;64.87;95547.44;5007768;28;20104;-62
2021/04/27 06:03:34;;;;;;;8.85;6.68;;;;;;;6.91;64.03;95546.91;5004666;28;20089;-63
2021/04/27 06:06:01;;;;;;;8.63;6.20;;;;;;;7.58;62.08;95539.66;5003138;28;20072;-63
2021/04/27 06:08:29;;;;;;;9.18;6.18;;;;;;;7.57;62.99;95532.75;5003853;28;20080;-63
2021/04/27 06:10:57;;;;;;;9.40;6.72;;;;;;;7.53;62.39;95536.66;5006059;28;20467;-64
2021/04/27 06:13:25;;;;;;;9.25;6.63;;;;;;;7.35;61.48;95529.59;5001377;28;20062;-64
2021/04/27 06:15:52;;;;;;;10.63;6.35;;;;;;;7.65;61.64;95535.47;5007614;28;20108;-63
2021/04/27 06:18:20;;;;;;;7.80;6.38;;;;;;;7.92;59.93;95539.00;5003516;28;20078;-64
2021/04/27 06:20:47;;;;;;;10.52;6.38;;;;;;;8.18;60.35;95529.34;5002975;28;20524;-65
2021/04/27 06:23:15;;;;;;;11.63;6.97;;;;;;;8.08;58.72;95539.94;5005694;28;20456;-64
2021/04/27 06:25:42;;;;;;;8.27;6.43;;;;;;;8.40;60.05;95537.75;5004853;28;20484;-66
2021/04/27 06:28:11;;;;;;;9.20;6.43;;;;;;;8.73;57.82;95533.50;5008539;28;20069;-63
2021/04/27 06:30:39;;;;;;;9.27;6.72;;;;;;;8.84;55.97;95538.50;4991976;28;20064;-64
2021/04/27 06:33:06;;;;;;;10.18;7.22;;;;;;;8.86;54.59;95531.28;5009209;28;20466;-63
2021/04/27 06:35:35;;;;;;;7.93;6.22;;;;;;;8.74;56.32;95530.75;5006207;28;20069;-63
2021/04/27 06:38:03;;;;;;;10.10;6.78;;;;;;;9.06;55.48;95524.00;5009755;28;20070;-63
2021/04/27 06:40:30;;;;;;;8.68;6.25;;;;;;;9.23;54.41;95520.44;5005578;28;20065;-64
2021/04/27 06:43:16;;;;;;;8.75;6.05;;;;;;;9.16;55.32;95527.31;4990238;28;20080;-62
2021/04/27 06:45:44;;;;;;;9.23;5.90;;;;;;;9.61;53.45;95520.88;4990533;28;20080;-64
2021/04/27 06:48:33;;;;;;;9.02;6.57;;;;;;;9.41;53.77;95520.31;5009720;28;20443;-63
2021/04/27 06:51:03;;;;;;;8.45;5.90;;;;;;;9.52;53.23;95513.94;5004363;28;20069;-64
2021/04/27 06:53:31;;;;;;;8.85;6.72;;;;;;;9.52;53.74;95527.91;4990152;28;20060;-62
2021/04/27 06:55:58;;;;;;;11.32;6.90;;;;;;;9.67;53.49;95516.75;5006147;28;20089;-64
2021/04/27 06:58:26;;;;;;;9.70;6.05;;;;;;;9.47;53.72;95510.97;5007451;28;20053;-63
2021/04/27 07:00:54;;;;;;;10.32;6.28;;;;;;;9.81;52.63;95524.03;4990570;28;20526;-64
2021/04/27 07:03:41;;;;;;;9.85;7.22;;;;;;;9.32;54.90;95512.56;5009451;28;20417;-63
2021/04/27 07:06:10;;;;;;;9.80;6.30;;;;;;;9.66;52.87;95508.03;5005923;28;20072;-63
2021/04/27 07:08:37;;;;;;;8.52;6.15;;;;;;;9.66;53.27;95515.94;5005555;28;20504;-65
2021/04/27 07:11:06;;;;;;;8.68;5.80;;;;;;;9.88;52.07;95505.78;5007703;28;20100;-64
2021/04/27 07:13:34;;;;;;;12.52;7.55;;;;;;;10.02;52.52;95507.75;5005492;28;20034;-65
2021/04/27 07:16:03;;;;;;;11.27;6.95;;;;;;;10.17;52.00;95508.72;5004652;28;20074;-63
2021/04/27 07:18:30;;;;;;;10.93;6.43;;;;;;;10.39;50.72;95509.91;5012046;28;20074;-64
2021/04/27 07:20:59;;;;;;;9.93;7.20;;;;;;;10.04;51.48;95503.13;5005689;28;20066;-64
2021/04/27 07:23:29;;;;;;;9.18;6.30;;;;;;;9.79;53.40;95504.09;5005832;28;20708;-65
2021/04/27 07:25:56;;;;;;;16.38;7.93;;;;;;;9.81;54.21;95502.97;5006806;28;20081;-64
2021/04/27 07:28:24;;;;;;;8.88;6.30;;;;;;;9.93;54.30;95511.34;5005593;28;20070;-64
2021/04/27 07:30:52;;;;;;;10.50;7.00;;;;;;;10.23;53.69;95507.25;5009555;28;20070;-65
2021/04/27 07:33:22;;;;;;;13.77;7.20;;;;;;;10.95;50.96;95493.28;5006683;28;20076;-66
2021/04/27 07:35:50;;;;;;;8.85;6.68;;;;;;;10.39;52.24;95499.34;5007409;28;20566;-64
2021/04/27 07:38:18;;;;;;;8.95;6.63;;;;;;;10.58;52.85;95500.78;5004107;28;20077;-65
2021/04/27 07:40:46;;;;;;;12.38;6.38;;;;;;;10.80;52.22;95496.59;5008473;28;20073;-64
2021/04/27 07:43:13;;;;;;;10.25;7.03;;;;;;;10.83;51.57;95490.19;5003255;28;20084;-65
2021/04/27 07:45:41;;;;;;;8.95;6.80;;;;;;;10.77;52.72;95494.34;5010359;28;20089;-65
2021/04/27 07:48:10;;;;;;;15.48;7.60;;;;;;;10.99;51.64;95484.03;4999830;28;20070;-64
2021/04/27 07:50:38;;;;;;;10.05;6.60;;;;;;;10.91;52.02;95482.25;5006264;28;20077;-65
2021/04/27 07:53:09;;;;;;;12.18;7.40;;;;;;;11.04;52.41;95490.41;5004536;28;20069;-66
2021/04/27 07:55:36;;;;;;;10.27;7.10;;;;;;;11.46;51.11;95483.13;5008464;28;20100;-64
2021/04/27 07:58:23;;;;;;;11.05;6.25;;;;;;;11.07;50.87;95478.72;5004701;28;20072;-65
2021/04/27 08:00:50;;;;;;;8.52;7.30;;;;;;;10.95;51.45;95480.09;5008360;28;20084;-64
2021/04/27 08:03:18;;;;;;;11.30;7.45;;;;;;;11.62;50.31;95483.84;5007901;28;20069;-64
2021/04/27 08:05:48;;;;;;;12.38;6.55;;;;;;;11.40;51.19;95477.56;5007156;28;20476;-65
2021/04/27 08:08:15;;;;;;;9.63;6.63;;;;;;;11.18;51.66;95467.78;5005158;28;20696;-64
2021/04/27 08:10:43;;;;;;;9.00;6.60;;;;;;;12.00;50.57;95481.28;5008365;28;20073;-65
2021/04/27 08:13:11;;;;;;;11.10;7.85;;;;;;;12.08;48.68;95473.31;5003102;28;20078;-64
2021/04/27 08:15:40;;;;;;;9.45;7.15;;;;;;;12.25;48.65;95471.34;5010592;28;20073;-65
2021/04/27 08:18:08;;;;;;;11.80;7.55;;;;;;;12.27;49.25;95479.91;5005545;28;20073;-66
2021/04/27 08:20:37;;;;;;;14.65;7.63;;;;;;;12.02;47.66;95466.09;5006365;28;20108;-64
2021/04/27 08:23:06;;;;;;;12.25;7.70;;;;;;;12.52;47.02;95480.50;5004164;28;20073;-64
2021/04/27 08:25:53;;;;;;;14.07;7.57;;;;;;;12.47;47.62;95479.41;4990399;28;20034;-64
2021/04/27 08:28:21;;;;;;;12.07;7.20;;;;;;;12.39;47.14;95477.69;5004860;28;20069;-66
2021/04/27 08:30:50;;;;;;;11.93;7.15;;;;;;;12.69;46.79;95470.56;5009419;28;20082;-64
2021/04/27 08:33:18;;;;;;;14.98;7.43;;;;;;;12.78;46.20;95476.59;5008276;28;20132;-64
2021/04/27 08:35:45;;;;;;;11.10;8.00;;;;;;;12.60;46.34;95471.69;5003684;28;20421;-64
2021/04/27 08:38:13;;;;;;;13.93;7.13;;;;;;;12.79;46.05;95471.13;5009427;28;20077;-65
2021/04/27 08:40:40;;;;;;;12.32;7.50;;;;;;;12.68;46.36;95478.69;5006504;28;20064;-65
2021/04/27 08:43:26;;;;;;;10.10;7.53;;;;;;;12.49;47.18;95466.81;5008201;28;20072;-65
2021/04/27 08:45:54;;;;;;;11.20;7.25;;;;;;;12.74;46.51;95470.03;5007207;28;20077;-65
2021/04/27 08:48:23;;;;;;;10.48;7.07;;;;;;;12.27;48.21;95455.31;5007292;28;20076;-65
2021/04/27 08:50:51;;;;;;;13.75;7.68;;;;;;;13.08;47.31;95472.13;5001744;28;20137;-64
2021/04/27 08:53:21;;;;;;;11.57;6.50;;;;;;;12.72;46.08;95477.34;5008079;28;20085;-69
2021/04/27 08:55:49;;;;;;;10.75;7.80;;;;;;;12.97;45.93;95476.06;5004994;28;20069;-63
2021/04/27 08:58:17;;;;;;;9.07;6.47;;;;;;;13.12;44.39;95462.81;5006232;28;20077;-63
2021/04/27 09:00:46;;;;;;;10.90;6.75;;;;;;;13.36;44.92;95464.34;5007294;28;20084;-65
2021/04/27 09:03:14;;;;;;;11.07;7.47;;;;;;;13.82;44.12;95466.66;5007139;28;20069;-65
2021/04/27 09:05:43;;;;;;;12.05;7.07;;;;;;;12.94;45.53;95455.25;5003613;28;20081;-65
2021/04/27 09:08:35;;;;;;;14.10;7.75;;;;;;;13.43;44.75;95451.19;5005562;28;20069;-63
2021/04/27 09:11:04;;;;;;;12.30;7.13;;;;;;;13.47;44.45;95452.44;4987020;28;20073;-64
2021/04/27 09:13:32;;;;;;;11.88;7.35;;;;;;;13.64;44.05;95440.59;5004525;28;20073;-65
2021/04/27 09:16:00;;;;;;;10.55;7.57;;;;;;;13.94;44.07;95445.78;5001479;28;20085;-63
2021/04/27 09:18:30;;;;;;;15.48;7.93;;;;;;;14.13;43.18;95441.66;5009041;28;20082;-64
2021/04/27 09:21:01;;;;;;;12.70;8.13;;;;;;;13.47;44.27;95452.44;5003851;28;20068;-65
2021/04/27 09:23:28;;;;;;;;;;;;;;;13.83;43.94;95439.13;5004285;28;20459;-64
2021/04/27 09:26:11;;;;;;;12.98;7.90;;;;;;;14.30;43.34;95443.00;5004911;28;19964;-63
2021/04/27 09:28:41;;;;;;;11.13;7.65;;;;;;;13.86;43.77;95443.25;4999196;28;20061;-64
2021/04/27 09:31:25;;;;;;;12.80;7.57;;;;;;;13.86;44.20;95428.16;5003123;28;20080;-63
2021/04/27 09:33:55;;;;;;;9.55;6.88;;;;;;;13.80;44.38;95428.09;5009466;28;20073;-64
2021/04/27 09:36:24;;;;;;;10.90;7.97;;;;;;;14.26;44.08;95431.16;5002699;28;20077;-62
2021/04/27 09:38:52;;;;;;;11.70;8.77;;;;;;;14.46;43.37;95429.47;4988023;28;20445;-64
2021/04/27 09:41:24;;;;;;;11.43;8.07;;;;;;;14.74;42.87;95426.00;5003362;28;20117;-64
2021/04/27 09:43:52;;;;;;;9.73;7.53;;;;;;;14.93;42.42;95414.66;4982486;28;20065;-64
2021/04/27 09:46:22;;;;;;;12.73;7.75;;;;;;;14.55;42.39;95426.69;5003463;28;22015;-65
2021/04/27 09:48:51;;;;;;;;;;;;;;;14.70;42.36;95414.94;5009154;28;20387;-64
2021/04/27 09:51:32;;;;;;;10.23;7.10;;;;;;;14.48;41.85;95411.50;5001365;28;20363;-64
2021/04/27 09:54:07;;;;;;;11.88;8.18;;;;;;;14.77;41.57;95412.34;4987472;28;20508;-64
2021/04/27 09:56:38;;;;;;;;;;;;;;;14.68;42.10;95414.31;4985853;28;20448;-64
2021/04/27 09:59:08;;;;;;;11.20;7.95;;;;;;;14.74;41.08;95409.25;5003409;28;19972;-65
2021/04/27 10:01:36;;;;;;;11.02;7.45;;;;;;;14.36;42.14;95412.25;4997084;28;20061;-65
2021/04/27 10:04:05;;;;;;;13.73;8.88;;;;;;;15.05;41.52;95420.22;4985047;28;20069;-63
2021/04/27 10:06:35;;;;;;;11.18;8.38;;;;;;;14.92;41.13;95405.03;5008563;28;20080;-64
2021/04/27 10:09:04;;;;;;;10.18;7.60;;;;;;;14.96;41.89;95406.28;5000926;28;20428;-64
2021/04/27 10:11:32;;;;;;;10.30;7.38;;;;;;;15.31;41.58;95408.88;4988541;28;20069;-65
2021/04/27 10:14:00;;;;;;;12.10;8.30;;;;;;;15.20;41.06;95404.94;4981437;28;20522;-62
2021/04/27 10:16:28;;;;;;;16.15;9.35;;;;;;;15.36;41.21;95402.97;4987636;28;20066;-65
2021/04/27 10:18:58;;;;;;;16.48;8.52;;;;;;;15.59;40.46;95395.47;5007098;28;20061;-65
2021/04/27 10:21:26;;;;;;;15.60;8.65;;;;;;;15.48;40.15;95405.84;5003499;28;21380;-65
2021/04/27 10:23:57;;;;;;;12.55;9.23;;;;;;;15.94;40.26;95391.84;5002424;28;20082;-64
2021/04/27 10:26:27;;;;;;;12.95;9.27;;;;;;;15.15;40.43;95391.47;5005087;28;20516;-65
2021/04/27 10:29:00;;;;;;;10.43;7.43;;;;;;;15.82;40.10;95386.31;5002362;28;20462;-65
2021/04/27 10:31:30;;;;;;;12.73;8.75;;;;;;;15.36;40.33;95389.69;5004558;28;20084;-65
2021/04/27 10:34:07;;;;;;;11.95;8.85;;;;;;;15.39;39.99;95384.78;5006590;28;20088;-62
2021/04/27 10:36:37;;;;;;;14.40;8.85;;;;;;;15.54;40.33;95376.63;5002806;28;20340;-66
2021/04/27 10:39:08;;;;;;;12.52;8.52;;;;;;;15.93;39.36;95372.38;5002983;28;20070;-67
2021/04/27 10:41:57;;;;;;;12.95;8.07;;;;;;;15.88;39.65;95372.19;5006303;28;20084;-65
2021/04/27 10:44:25;;;;;;;9.95;7.93;;;;;;;15.57;40.35;95370.91;5003078;28;20073;-66
2021/04/27 10:47:03;;;;;;;10.95;8.00;;;;;;;15.83;40.06;95366.69;4999613;28;20057;-65
2021/04/27 10:49:37;;;;;;;13.70;9.13;;;;;;;15.85;39.65;95361.97;5002676;28;20081;-65
2021/04/27 10:52:06;;;;;;;10.32;8.57;;;;;;;15.71;39.85;95368.31;5003121;28;20096;-66
2021/04/27 10:54:37;;;;;;;13.80;8.80;;;;;;;16.01;39.45;95360.75;5004272;28;20089;-65
2021/04/27 10:57:24;;;;;;;11.48;9.52;;;;;;;16.02;40.21;95352.56;5004995;28;20034;-66
2021/04/27 10:59:58;;;;;;;12.90;8.73;;;;;;;15.86;39.45;95353.81;4984782;28;20532;-65
2021/04/27 11:02:28;;;;;;;11.45;8.38;;;;;;;15.63;39.82;95348.84;5005504;28;20463;-64
2021/04/27 11:05:01;;;;;;;13.00;9.30;;;;;;;15.83;39.62;95340.91;5003347;28;20084;-63
2021/04/27 11:07:37;;;;;;;14.55;8.73;;;;;;;16.60;38.89;95341.19;5005912;28;20066;-64
2021/04/27 11:10:33;;;;;;;11.10;9.30;;;;;;;15.92;39.86;95352.16;5000715;28;20145;-65
2021/04/27 11:13:08;;;;;;;13.23;9.35;;;;;;;17.14;39.71;95341.84;5003073;28;20600;-64
2021/04/27 11:15:37;;;;;;;12.00;8.52;;;;;;;17.03;38.02;95345.97;5009681;28;20085;-64
2021/04/27 11:18:10;;;;;;;13.20;9.20;;;;;;;16.53;39.59;95343.88;5007981;28;20062;-65
2021/04/27 11:20:59;;;;;;;12.98;9.90;;;;;;;16.66;38.71;95337.72;4996740;28;20066;-64
2021/04/27 11:23:41;;;;;;;13.57;9.15;;;;;;;16.81;38.77;95332.16;5008816;28;20065;-61
2021/04/27 11:26:48;;;;;;;12.00;7.85;;;;;;;16.60;39.41;95344.69;5005558;28;20575;-65
2021/04/27 11:29:19;;;;;;;11.48;9.50;;;;;;;16.70;39.67;95344.25;5006912;28;20081;-64
2021/04/27 11:32:12;;;;;;;10.98;9.15;;;;;;;16.74;38.80;95334.00;5005407;28;20498;-64
2021/04/27 11:34:54;;;;;;;12.45;9.38;;;;;;;16.29;39.91;95337.38;5009041;28;20096;-64
2021/04/27 11:37:24;;;;;;;15.23;10.02;;;;;;;16.69;39.76;95329.31;5005969;28;20088;-65
2021/04/27 11:39:52;;;;;;;13.48;10.02;;;;;;;16.35;39.36;95328.59;5009479;28;20073;-64
2021/04/27 11:42:27;;;;;;;12.18;9.85;;;;;;;16.67;39.71;95326.03;5006210;28;20065;-63
2021/04/27 11:45:01;;;;;;;14.95;9.95;;;;;;;16.98;39.85;95325.31;5007825;28;20081;-64
2021/04/27 11:47:36;;;;;;;14.98;9.80;;;;;;;16.45;40.06;95328.16;5003408;28;20115;-65
2021/04/27 11:50:07;;;;;;;15.13;10.05;;;;;;;16.58;39.55;95325.44;5007381;28;20149;-64